sensor_id;sensor_type;location;lat;lon;timestamp;P1;durP1;ratioP1;P2;durP2;ratioP2
11823;SDS011;5969;50.780;7.726;2022-08-03T00:02:05;2.22;;;2.03;;
11823;SDS011;5969;50.780;7.726;2022-08-03T00:04:32;2.40;;;2.17;;
11823;SDS011;5969;50.780;7.726;2022-08-03T00:06:58;3.70;;;2.30;;
11823;SDS011;5969;50.780;7.726;2022-08-03T00:09:25;3.00;;;2.40;;
11823;SDS011;5969;50.780;7.726;2022-08-03T00:11:53;3.70;;;2.42;;
11823;SDS011;5969;50.780;7.726;2022-08-03T00:14:20;2.75;;;2.50;;
11823;SDS011;5969;50.780;7.726;2022-08-03T00:16:46;3.33;;;2.45;;
11823;SDS011;5969;50.780;7.726;2022-08-03T00:19:13;3.10;;;2.50;;
11823;SDS011;5969;50.780;7.726;2022-08-03T00:21:40;3.28;;;2.47;;
11823;SDS011;5969;50.780;7.726;2022-08-03T00:24:06;3.03;;;2.38;;
11823;SDS011;5969;50.780;7.726;2022-08-03T00:26:33;2.60;;;2.40;;
11823;SDS011;5969;50.780;7.726;2022-08-03T00:29:01;3.20;;;2.45;;
11823;SDS011;5969;50.780;7.726;2022-08-03T00:31:28;3.88;;;2.72;;
11823;SDS011;5969;50.780;7.726;2022-08-03T00:33:55;2.90;;;2.55;;
11823;SDS011;5969;50.780;7.726;2022-08-03T00:36:21;3.00;;;2.70;;
11823;SDS011;5969;50.780;7.726;2022-08-03T00:38:48;2.88;;;2.50;;
11823;SDS011;5969;50.780;7.726;2022-08-03T00:41:15;3.20;;;2.60;;
11823;SDS011;5969;50.780;7.726;2022-08-03T00:43:41;2.50;;;2.30;;
11823;SDS011;5969;50.780;7.726;2022-08-03T00:46:10;4.72;;;2.58;;
11823;SDS011;5969;50.780;7.726;2022-08-03T00:48:37;3.22;;;2.60;;
11823;SDS011;5969;50.780;7.726;2022-08-03T00:51:03;2.92;;;2.65;;
11823;SDS011;5969;50.780;7.726;2022-08-03T00:53:31;2.80;;;2.50;;
11823;SDS011;5969;50.780;7.726;2022-08-03T00:55:59;2.65;;;2.45;;
11823;SDS011;5969;50.780;7.726;2022-08-03T00:58:26;2.78;;;2.45;;
11823;SDS011;5969;50.780;7.726;2022-08-03T01:00:53;2.90;;;2.63;;
11823;SDS011;5969;50.780;7.726;2022-08-03T01:03:21;2.53;;;2.30;;
11823;SDS011;5969;50.780;7.726;2022-08-03T01:05:49;3.17;;;2.38;;
11823;SDS011;5969;50.780;7.726;2022-08-03T01:08:21;2.63;;;2.42;;
11823;SDS011;5969;50.780;7.726;2022-08-03T01:10:59;3.00;;;2.80;;
11823;SDS011;5969;50.780;7.726;2022-08-03T01:13:44;2.83;;;2.63;;
11823;SDS011;5969;50.780;7.726;2022-08-03T01:16:20;3.08;;;2.83;;
11823;SDS011;5969;50.780;7.726;2022-08-03T01:18:54;2.90;;;2.70;;
11823;SDS011;5969;50.780;7.726;2022-08-03T01:21:25;2.78;;;2.42;;
11823;SDS011;5969;50.780;7.726;2022-08-03T01:24:04;4.15;;;2.80;;
11823;SDS011;5969;50.780;7.726;2022-08-03T01:26:54;4.47;;;2.65;;
11823;SDS011;5969;50.780;7.726;2022-08-03T01:29:44;2.60;;;2.40;;
11823;SDS011;5969;50.780;7.726;2022-08-03T01:32:24;2.60;;;2.40;;
11823;SDS011;5969;50.780;7.726;2022-08-03T01:34:59;2.80;;;2.60;;
11823;SDS011;5969;50.780;7.726;2022-08-03T01:37:31;3.53;;;2.53;;
11823;SDS011;5969;50.780;7.726;2022-08-03T01:40:03;3.42;;;2.78;;
11823;SDS011;5969;50.780;7.726;2022-08-03T01:42:31;3.08;;;2.78;;
11823;SDS011;5969;50.780;7.726;2022-08-03T01:45:01;4.28;;;2.58;;
11823;SDS011;5969;50.780;7.726;2022-08-03T01:47:30;3.00;;;2.80;;
11823;SDS011;5969;50.780;7.726;2022-08-03T01:49:57;2.90;;;2.70;;
11823;SDS011;5969;50.780;7.726;2022-08-03T01:52:27;3.00;;;2.80;;
11823;SDS011;5969;50.780;7.726;2022-08-03T01:54:55;4.22;;;2.95;;
11823;SDS011;5969;50.780;7.726;2022-08-03T01:57:23;4.47;;;2.92;;
11823;SDS011;5969;50.780;7.726;2022-08-03T01:59:53;3.08;;;2.78;;
11823;SDS011;5969;50.780;7.726;2022-08-03T02:02:23;2.90;;;2.60;;
11823;SDS011;5969;50.780;7.726;2022-08-03T02:04:52;2.80;;;2.60;;
11823;SDS011;5969;50.780;7.726;2022-08-03T02:07:20;5.22;;;3.17;;
11823;SDS011;5969;50.780;7.726;2022-08-03T02:09:50;3.53;;;3.17;;
11823;SDS011;5969;50.780;7.726;2022-08-03T02:12:18;3.25;;;3.00;;
11823;SDS011;5969;50.780;7.726;2022-08-03T02:14:47;4.38;;;2.92;;
11823;SDS011;5969;50.780;7.726;2022-08-03T02:17:15;3.30;;;2.92;;
11823;SDS011;5969;50.780;7.726;2022-08-03T02:19:44;5.28;;;4.78;;
11823;SDS011;5969;50.780;7.726;2022-08-03T02:22:11;6.75;;;5.90;;
11823;SDS011;5969;50.780;7.726;2022-08-03T02:24:39;3.60;;;3.30;;
11823;SDS011;5969;50.780;7.726;2022-08-03T02:27:08;7.28;;;4.85;;
11823;SDS011;5969;50.780;7.726;2022-08-03T02:29:42;3.88;;;3.08;;
11823;SDS011;5969;50.780;7.726;2022-08-03T02:32:14;2.85;;;2.65;;
11823;SDS011;5969;50.780;7.726;2022-08-03T02:34:48;3.75;;;2.85;;
11823;SDS011;5969;50.780;7.726;2022-08-03T02:37:18;3.90;;;3.45;;
11823;SDS011;5969;50.780;7.726;2022-08-03T02:39:47;3.85;;;3.30;;
11823;SDS011;5969;50.780;7.726;2022-08-03T02:42:17;4.38;;;3.70;;
11823;SDS011;5969;50.780;7.726;2022-08-03T02:44:47;5.47;;;4.90;;
11823;SDS011;5969;50.780;7.726;2022-08-03T02:47:15;3.50;;;3.20;;
11823;SDS011;5969;50.780;7.726;2022-08-03T02:49:46;3.20;;;2.90;;
11823;SDS011;5969;50.780;7.726;2022-08-03T02:52:16;4.65;;;4.03;;
11823;SDS011;5969;50.780;7.726;2022-08-03T02:54:43;3.67;;;3.38;;
11823;SDS011;5969;50.780;7.726;2022-08-03T02:57:13;3.50;;;3.20;;
11823;SDS011;5969;50.780;7.726;2022-08-03T02:59:43;3.63;;;3.33;;
11823;SDS011;5969;50.780;7.726;2022-08-03T03:02:10;5.45;;;3.75;;
11823;SDS011;5969;50.780;7.726;2022-08-03T03:04:39;3.40;;;3.10;;
11823;SDS011;5969;50.780;7.726;2022-08-03T03:07:09;3.47;;;3.17;;
11823;SDS011;5969;50.780;7.726;2022-08-03T03:09:37;3.17;;;2.97;;
11823;SDS011;5969;50.780;7.726;2022-08-03T03:12:04;3.60;;;3.30;;
11823;SDS011;5969;50.780;7.726;2022-08-03T03:14:33;3.60;;;3.30;;
11823;SDS011;5969;50.780;7.726;2022-08-03T03:17:01;3.63;;;3.10;;
11823;SDS011;5969;50.780;7.726;2022-08-03T03:19:29;3.05;;;2.85;;
11823;SDS011;5969;50.780;7.726;2022-08-03T03:21:57;3.15;;;2.85;;
11823;SDS011;5969;50.780;7.726;2022-08-03T03:24:28;3.85;;;3.55;;
11823;SDS011;5969;50.780;7.726;2022-08-03T03:26:55;3.83;;;3.08;;
11823;SDS011;5969;50.780;7.726;2022-08-03T03:29:22;3.60;;;3.30;;
11823;SDS011;5969;50.780;7.726;2022-08-03T03:31:49;3.80;;;3.40;;
11823;SDS011;5969;50.780;7.726;2022-08-03T03:34:16;3.10;;;2.90;;
11823;SDS011;5969;50.780;7.726;2022-08-03T03:36:44;3.58;;;3.28;;
11823;SDS011;5969;50.780;7.726;2022-08-03T03:39:10;3.40;;;3.10;;
11823;SDS011;5969;50.780;7.726;2022-08-03T03:41:39;6.38;;;3.33;;
11823;SDS011;5969;50.780;7.726;2022-08-03T03:44:06;3.15;;;2.85;;
11823;SDS011;5969;50.780;7.726;2022-08-03T03:46:32;3.50;;;3.20;;
11823;SDS011;5969;50.780;7.726;2022-08-03T03:48:59;4.60;;;3.17;;
11823;SDS011;5969;50.780;7.726;2022-08-03T03:51:26;3.83;;;3.47;;
11823;SDS011;5969;50.780;7.726;2022-08-03T03:53:53;4.05;;;3.30;;
11823;SDS011;5969;50.780;7.726;2022-08-03T03:56:21;3.55;;;3.25;;
11823;SDS011;5969;50.780;7.726;2022-08-03T03:58:49;3.67;;;3.35;;
11823;SDS011;5969;50.780;7.726;2022-08-03T04:01:16;4.63;;;2.97;;
11823;SDS011;5969;50.780;7.726;2022-08-03T04:03:42;3.58;;;3.05;;
11823;SDS011;5969;50.780;7.726;2022-08-03T04:06:09;3.65;;;3.35;;
11823;SDS011;5969;50.780;7.726;2022-08-03T04:08:54;4.03;;;3.30;;
11823;SDS011;5969;50.780;7.726;2022-08-03T04:11:39;6.68;;;3.50;;
11823;SDS011;5969;50.780;7.726;2022-08-03T04:14:12;4.25;;;3.30;;
11823;SDS011;5969;50.780;7.726;2022-08-03T04:16:42;4.45;;;3.15;;
11823;SDS011;5969;50.780;7.726;2022-08-03T04:19:13;3.58;;;3.17;;
11823;SDS011;5969;50.780;7.726;2022-08-03T04:21:43;3.80;;;3.08;;
11823;SDS011;5969;50.780;7.726;2022-08-03T04:24:14;3.10;;;2.80;;
11823;SDS011;5969;50.780;7.726;2022-08-03T04:26:42;4.15;;;3.38;;
11823;SDS011;5969;50.780;7.726;2022-08-03T04:29:11;3.45;;;3.15;;
11823;SDS011;5969;50.780;7.726;2022-08-03T04:31:39;3.72;;;3.35;;
11823;SDS011;5969;50.780;7.726;2022-08-03T04:34:08;3.90;;;3.60;;
11823;SDS011;5969;50.780;7.726;2022-08-03T04:36:36;5.13;;;3.05;;
11823;SDS011;5969;50.780;7.726;2022-08-03T04:39:11;3.28;;;2.97;;
11823;SDS011;5969;50.780;7.726;2022-08-03T04:41:41;4.10;;;3.70;;
11823;SDS011;5969;50.780;7.726;2022-08-03T04:44:09;4.38;;;3.97;;
11823;SDS011;5969;50.780;7.726;2022-08-03T04:46:39;3.58;;;3.28;;
11823;SDS011;5969;50.780;7.726;2022-08-03T04:49:08;4.35;;;3.95;;
11823;SDS011;5969;50.780;7.726;2022-08-03T04:51:36;2.75;;;2.55;;
11823;SDS011;5969;50.780;7.726;2022-08-03T04:54:04;5.40;;;3.63;;
11823;SDS011;5969;50.780;7.726;2022-08-03T04:56:32;4.13;;;3.78;;
11823;SDS011;5969;50.780;7.726;2022-08-03T04:58:59;3.53;;;3.22;;
11823;SDS011;5969;50.780;7.726;2022-08-03T05:01:27;3.22;;;3.00;;
11823;SDS011;5969;50.780;7.726;2022-08-03T05:03:54;4.93;;;3.45;;
11823;SDS011;5969;50.780;7.726;2022-08-03T05:06:20;3.90;;;3.60;;
11823;SDS011;5969;50.780;7.726;2022-08-03T05:08:47;6.40;;;3.78;;
11823;SDS011;5969;50.780;7.726;2022-08-03T05:11:14;4.50;;;4.07;;
11823;SDS011;5969;50.780;7.726;2022-08-03T05:13:41;3.40;;;3.08;;
11823;SDS011;5969;50.780;7.726;2022-08-03T05:16:07;3.90;;;3.47;;
11823;SDS011;5969;50.780;7.726;2022-08-03T05:18:35;4.43;;;3.40;;
11823;SDS011;5969;50.780;7.726;2022-08-03T05:21:02;4.45;;;3.83;;
11823;SDS011;5969;50.780;7.726;2022-08-03T05:23:29;5.65;;;4.43;;
11823;SDS011;5969;50.780;7.726;2022-08-03T05:25:56;4.55;;;4.15;;
11823;SDS011;5969;50.780;7.726;2022-08-03T05:28:22;6.47;;;4.68;;
11823;SDS011;5969;50.780;7.726;2022-08-03T05:30:49;5.50;;;4.60;;
11823;SDS011;5969;50.780;7.726;2022-08-03T05:33:16;5.47;;;3.50;;
11823;SDS011;5969;50.780;7.726;2022-08-03T05:35:44;3.70;;;3.28;;
11823;SDS011;5969;50.780;7.726;2022-08-03T05:38:11;4.13;;;3.72;;
11823;SDS011;5969;50.780;7.726;2022-08-03T05:40:37;4.32;;;3.45;;
11823;SDS011;5969;50.780;7.726;2022-08-03T05:43:04;4.07;;;3.67;;
11823;SDS011;5969;50.780;7.726;2022-08-03T05:45:31;7.63;;;3.42;;
11823;SDS011;5969;50.780;7.726;2022-08-03T05:47:57;5.07;;;3.72;;
11823;SDS011;5969;50.780;7.726;2022-08-03T05:50:24;4.70;;;4.30;;
11823;SDS011;5969;50.780;7.726;2022-08-03T05:52:55;5.22;;;4.47;;
11823;SDS011;5969;50.780;7.726;2022-08-03T05:55:22;6.82;;;3.40;;
11823;SDS011;5969;50.780;7.726;2022-08-03T05:57:49;10.05;;;8.07;;
11823;SDS011;5969;50.780;7.726;2022-08-03T06:00:16;4.68;;;3.75;;
11823;SDS011;5969;50.780;7.726;2022-08-03T06:02:43;10.88;;;8.75;;
11823;SDS011;5969;50.780;7.726;2022-08-03T06:05:10;5.32;;;3.63;;
11823;SDS011;5969;50.780;7.726;2022-08-03T06:07:37;5.82;;;4.72;;
11823;SDS011;5969;50.780;7.726;2022-08-03T06:10:05;6.82;;;5.82;;
11823;SDS011;5969;50.780;7.726;2022-08-03T06:12:33;4.13;;;3.63;;
11823;SDS011;5969;50.780;7.726;2022-08-03T06:15:00;3.40;;;3.10;;
11823;SDS011;5969;50.780;7.726;2022-08-03T06:17:28;9.93;;;8.82;;
11823;SDS011;5969;50.780;7.726;2022-08-03T06:19:54;3.92;;;3.63;;
11823;SDS011;5969;50.780;7.726;2022-08-03T06:22:21;6.00;;;3.47;;
11823;SDS011;5969;50.780;7.726;2022-08-03T06:24:48;3.95;;;3.55;;
11823;SDS011;5969;50.780;7.726;2022-08-03T06:27:16;4.97;;;3.55;;
11823;SDS011;5969;50.780;7.726;2022-08-03T06:29:43;5.38;;;3.70;;
11823;SDS011;5969;50.780;7.726;2022-08-03T06:32:10;4.38;;;3.97;;
11823;SDS011;5969;50.780;7.726;2022-08-03T06:34:36;4.57;;;3.70;;
11823;SDS011;5969;50.780;7.726;2022-08-03T06:37:03;3.92;;;3.28;;
11823;SDS011;5969;50.780;7.726;2022-08-03T06:39:30;3.60;;;3.30;;
11823;SDS011;5969;50.780;7.726;2022-08-03T06:41:57;4.05;;;3.33;;
11823;SDS011;5969;50.780;7.726;2022-08-03T06:44:25;6.45;;;5.25;;
11823;SDS011;5969;50.780;7.726;2022-08-03T06:46:52;5.78;;;3.35;;
11823;SDS011;5969;50.780;7.726;2022-08-03T06:49:18;5.32;;;3.50;;
11823;SDS011;5969;50.780;7.726;2022-08-03T06:51:45;4.03;;;3.63;;
11823;SDS011;5969;50.780;7.726;2022-08-03T06:54:12;10.05;;;4.22;;
11823;SDS011;5969;50.780;7.726;2022-08-03T06:56:39;4.45;;;3.95;;
11823;SDS011;5969;50.780;7.726;2022-08-03T06:59:05;3.33;;;3.03;;
11823;SDS011;5969;50.780;7.726;2022-08-03T07:01:33;5.00;;;3.40;;
11823;SDS011;5969;50.780;7.726;2022-08-03T07:04:00;4.55;;;3.00;;
11823;SDS011;5969;50.780;7.726;2022-08-03T07:06:27;5.18;;;3.60;;
11823;SDS011;5969;50.780;7.726;2022-08-03T07:08:53;3.50;;;3.00;;
11823;SDS011;5969;50.780;7.726;2022-08-03T07:11:20;4.15;;;3.75;;
11823;SDS011;5969;50.780;7.726;2022-08-03T07:13:47;6.55;;;3.22;;
11823;SDS011;5969;50.780;7.726;2022-08-03T07:16:14;4.85;;;3.13;;
11823;SDS011;5969;50.780;7.726;2022-08-03T07:18:42;4.57;;;2.75;;
11823;SDS011;5969;50.780;7.726;2022-08-03T07:21:08;3.25;;;2.95;;
11823;SDS011;5969;50.780;7.726;2022-08-03T07:23:36;2.83;;;2.60;;
11823;SDS011;5969;50.780;7.726;2022-08-03T07:26:03;3.47;;;2.92;;
11823;SDS011;5969;50.780;7.726;2022-08-03T07:28:30;5.72;;;3.63;;
11823;SDS011;5969;50.780;7.726;2022-08-03T07:30:57;6.13;;;2.90;;
11823;SDS011;5969;50.780;7.726;2022-08-03T07:33:23;3.00;;;2.80;;
11823;SDS011;5969;50.780;7.726;2022-08-03T07:35:52;3.00;;;2.80;;
11823;SDS011;5969;50.780;7.726;2022-08-03T07:38:18;3.88;;;2.42;;
11823;SDS011;5969;50.780;7.726;2022-08-03T07:40:45;3.90;;;2.58;;
11823;SDS011;5969;50.780;7.726;2022-08-03T07:43:12;3.33;;;3.03;;
11823;SDS011;5969;50.780;7.726;2022-08-03T07:45:38;8.57;;;7.53;;
11823;SDS011;5969;50.780;7.726;2022-08-03T07:48:05;4.95;;;4.45;;
11823;SDS011;5969;50.780;7.726;2022-08-03T07:50:32;4.53;;;3.00;;
11823;SDS011;5969;50.780;7.726;2022-08-03T07:53:00;3.67;;;3.13;;
11823;SDS011;5969;50.780;7.726;2022-08-03T07:55:26;2.50;;;2.30;;
11823;SDS011;5969;50.780;7.726;2022-08-03T07:58:03;6.25;;;2.20;;
11823;SDS011;5969;50.780;7.726;2022-08-03T08:00:31;2.42;;;2.22;;
11823;SDS011;5969;50.780;7.726;2022-08-03T08:02:58;2.67;;;2.47;;
11823;SDS011;5969;50.780;7.726;2022-08-03T08:05:26;4.00;;;2.90;;
11823;SDS011;5969;50.780;7.726;2022-08-03T08:07:53;4.82;;;2.40;;
11823;SDS011;5969;50.780;7.726;2022-08-03T08:10:21;4.15;;;3.63;;
11823;SDS011;5969;50.780;7.726;2022-08-03T08:12:48;2.53;;;2.30;;
11823;SDS011;5969;50.780;7.726;2022-08-03T08:15:15;3.67;;;2.25;;
11823;SDS011;5969;50.780;7.726;2022-08-03T08:17:43;3.67;;;2.58;;
11823;SDS011;5969;50.780;7.726;2022-08-03T08:20:11;5.80;;;2.63;;
11823;SDS011;5969;50.780;7.726;2022-08-03T08:22:42;3.00;;;2.28;;
11823;SDS011;5969;50.780;7.726;2022-08-03T08:25:09;5.75;;;2.45;;
11823;SDS011;5969;50.780;7.726;2022-08-03T08:27:41;7.55;;;1.95;;
11823;SDS011;5969;50.780;7.726;2022-08-03T08:30:09;2.55;;;2.35;;
11823;SDS011;5969;50.780;7.726;2022-08-03T08:32:36;2.28;;;2.08;;
11823;SDS011;5969;50.780;7.726;2022-08-03T08:35:04;4.18;;;2.33;;
11823;SDS011;5969;50.780;7.726;2022-08-03T08:37:31;3.65;;;2.03;;
11823;SDS011;5969;50.780;7.726;2022-08-03T08:39:58;5.18;;;2.45;;
11823;SDS011;5969;50.780;7.726;2022-08-03T08:42:25;2.38;;;2.08;;
11823;SDS011;5969;50.780;7.726;2022-08-03T08:44:53;3.28;;;2.30;;
11823;SDS011;5969;50.780;7.726;2022-08-03T08:47:20;4.00;;;2.08;;
11823;SDS011;5969;50.780;7.726;2022-08-03T08:49:50;2.63;;;1.80;;
11823;SDS011;5969;50.780;7.726;2022-08-03T08:52:18;2.72;;;1.85;;
11823;SDS011;5969;50.780;7.726;2022-08-03T08:54:49;2.70;;;1.80;;
11823;SDS011;5969;50.780;7.726;2022-08-03T08:57:20;3.38;;;1.95;;
11823;SDS011;5969;50.780;7.726;2022-08-03T08:59:50;2.28;;;1.90;;
11823;SDS011;5969;50.780;7.726;2022-08-03T09:02:22;2.28;;;1.83;;
11823;SDS011;5969;50.780;7.726;2022-08-03T09:04:49;2.58;;;1.77;;
11823;SDS011;5969;50.780;7.726;2022-08-03T09:07:16;1.83;;;1.73;;
11823;SDS011;5969;50.780;7.726;2022-08-03T09:09:43;4.43;;;1.60;;
11823;SDS011;5969;50.780;7.726;2022-08-03T09:12:10;3.38;;;1.80;;
11823;SDS011;5969;50.780;7.726;2022-08-03T09:14:37;3.28;;;1.90;;
11823;SDS011;5969;50.780;7.726;2022-08-03T09:17:04;4.38;;;1.83;;
11823;SDS011;5969;50.780;7.726;2022-08-03T09:19:32;1.80;;;1.70;;
11823;SDS011;5969;50.780;7.726;2022-08-03T09:22:09;2.15;;;1.50;;
11823;SDS011;5969;50.780;7.726;2022-08-03T09:24:37;2.20;;;1.40;;
11823;SDS011;5969;50.780;7.726;2022-08-03T09:27:18;3.45;;;1.50;;
11823;SDS011;5969;50.780;7.726;2022-08-03T09:29:46;1.92;;;1.65;;
11823;SDS011;5969;50.780;7.726;2022-08-03T09:32:13;3.03;;;1.65;;
11823;SDS011;5969;50.780;7.726;2022-08-03T09:34:42;1.85;;;1.50;;
11823;SDS011;5969;50.780;7.726;2022-08-03T09:37:11;1.88;;;1.58;;
11823;SDS011;5969;50.780;7.726;2022-08-03T09:39:39;1.80;;;1.70;;
11823;SDS011;5969;50.780;7.726;2022-08-03T09:42:07;2.38;;;1.40;;
11823;SDS011;5969;50.780;7.726;2022-08-03T09:44:35;1.98;;;1.70;;
11823;SDS011;5969;50.780;7.726;2022-08-03T09:47:03;1.63;;;1.52;;
11823;SDS011;5969;50.780;7.726;2022-08-03T09:49:30;2.58;;;1.77;;
11823;SDS011;5969;50.780;7.726;2022-08-03T09:52:01;2.72;;;1.60;;
11823;SDS011;5969;50.780;7.726;2022-08-03T09:54:38;3.25;;;1.50;;
11823;SDS011;5969;50.780;7.726;2022-08-03T09:57:05;3.50;;;1.70;;
11823;SDS011;5969;50.780;7.726;2022-08-03T09:59:33;2.17;;;1.60;;
11823;SDS011;5969;50.780;7.726;2022-08-03T10:02:00;3.10;;;1.60;;
11823;SDS011;5969;50.780;7.726;2022-08-03T10:04:27;1.52;;;1.42;;
11823;SDS011;5969;50.780;7.726;2022-08-03T10:07:02;1.95;;;1.60;;
11823;SDS011;5969;50.780;7.726;2022-08-03T10:09:30;3.08;;;1.90;;
11823;SDS011;5969;50.780;7.726;2022-08-03T10:11:57;2.15;;;1.90;;
11823;SDS011;5969;50.780;7.726;2022-08-03T10:14:33;2.20;;;1.55;;
11823;SDS011;5969;50.780;7.726;2022-08-03T10:17:02;2.78;;;1.58;;
11823;SDS011;5969;50.780;7.726;2022-08-03T10:19:29;2.53;;;1.23;;
11823;SDS011;5969;50.780;7.726;2022-08-03T10:21:56;2.63;;;1.48;;
11823;SDS011;5969;50.780;7.726;2022-08-03T10:24:29;2.10;;;1.63;;
11823;SDS011;5969;50.780;7.726;2022-08-03T10:27:00;2.45;;;1.60;;
11823;SDS011;5969;50.780;7.726;2022-08-03T10:29:28;1.85;;;1.50;;
11823;SDS011;5969;50.780;7.726;2022-08-03T10:31:59;2.30;;;1.50;;
11823;SDS011;5969;50.780;7.726;2022-08-03T10:34:34;2.28;;;1.40;;
11823;SDS011;5969;50.780;7.726;2022-08-03T10:37:09;1.80;;;1.60;;
11823;SDS011;5969;50.780;7.726;2022-08-03T10:39:37;1.88;;;1.63;;
11823;SDS011;5969;50.780;7.726;2022-08-03T10:42:17;2.95;;;1.55;;
11823;SDS011;5969;50.780;7.726;2022-08-03T10:44:46;2.55;;;1.90;;
11823;SDS011;5969;50.780;7.726;2022-08-03T10:47:17;3.63;;;1.67;;
11823;SDS011;5969;50.780;7.726;2022-08-03T10:49:46;2.03;;;1.80;;
11823;SDS011;5969;50.780;7.726;2022-08-03T10:52:15;2.83;;;1.63;;
11823;SDS011;5969;50.780;7.726;2022-08-03T10:54:42;3.30;;;1.52;;
11823;SDS011;5969;50.780;7.726;2022-08-03T11:00:19;5.00;;;1.90;;
11823;SDS011;5969;50.780;7.726;2022-08-03T11:05:34;1.98;;;1.83;;
11823;SDS011;5969;50.780;7.726;2022-08-03T11:08:23;6.78;;;1.90;;
11823;SDS011;5969;50.780;7.726;2022-08-03T11:10:55;2.13;;;1.80;;
11823;SDS011;5969;50.780;7.726;2022-08-03T11:13:25;1.52;;;1.42;;
11823;SDS011;5969;50.780;7.726;2022-08-03T11:15:56;3.58;;;1.90;;
11823;SDS011;5969;50.780;7.726;2022-08-03T11:18:24;3.17;;;1.80;;
11823;SDS011;5969;50.780;7.726;2022-08-03T11:20:52;3.33;;;1.50;;
11823;SDS011;5969;50.780;7.726;2022-08-03T11:23:20;1.83;;;1.50;;
11823;SDS011;5969;50.780;7.726;2022-08-03T11:26:08;2.30;;;1.33;;
11823;SDS011;5969;50.780;7.726;2022-08-03T11:28:36;1.60;;;1.50;;
11823;SDS011;5969;50.780;7.726;2022-08-03T11:34:14;5.88;;;1.48;;
11823;SDS011;5969;50.780;7.726;2022-08-03T11:39:48;1.77;;;1.40;;
11823;SDS011;5969;50.780;7.726;2022-08-03T11:45:14;2.40;;;1.30;;
11823;SDS011;5969;50.780;7.726;2022-08-03T11:47:43;1.35;;;1.25;;
11823;SDS011;5969;50.780;7.726;2022-08-03T11:50:10;1.63;;;1.52;;
11823;SDS011;5969;50.780;7.726;2022-08-03T11:52:38;2.35;;;1.60;;
11823;SDS011;5969;50.780;7.726;2022-08-03T11:55:12;3.08;;;1.40;;
11823;SDS011;5969;50.780;7.726;2022-08-03T11:57:40;1.30;;;1.20;;
11823;SDS011;5969;50.780;7.726;2022-08-03T12:00:26;3.00;;;1.27;;
11823;SDS011;5969;50.780;7.726;2022-08-03T12:02:59;5.07;;;1.50;;
11823;SDS011;5969;50.780;7.726;2022-08-03T12:08:28;1.63;;;1.52;;
11823;SDS011;5969;50.780;7.726;2022-08-03T12:10:57;2.13;;;1.33;;
11823;SDS011;5969;50.780;7.726;2022-08-03T12:13:25;1.30;;;1.20;;
11823;SDS011;5969;50.780;7.726;2022-08-03T12:16:02;1.95;;;1.30;;
11823;SDS011;5969;50.780;7.726;2022-08-03T12:18:30;1.25;;;1.13;;
11823;SDS011;5969;50.780;7.726;2022-08-03T12:21:02;1.52;;;1.42;;
11823;SDS011;5969;50.780;7.726;2022-08-03T12:23:30;2.90;;;1.70;;
11823;SDS011;5969;50.780;7.726;2022-08-03T12:26:01;2.00;;;1.30;;
11823;SDS011;5969;50.780;7.726;2022-08-03T12:28:28;2.05;;;1.50;;
11823;SDS011;5969;50.780;7.726;2022-08-03T12:30:59;1.63;;;1.52;;
11823;SDS011;5969;50.780;7.726;2022-08-03T12:33:27;2.30;;;1.65;;
11823;SDS011;5969;50.780;7.726;2022-08-03T12:36:02;1.65;;;1.40;;
11823;SDS011;5969;50.780;7.726;2022-08-03T12:38:31;1.63;;;1.27;;
11823;SDS011;5969;50.780;7.726;2022-08-03T12:40:58;2.80;;;1.40;;
11823;SDS011;5969;50.780;7.726;2022-08-03T12:43:28;2.08;;;1.55;;
11823;SDS011;5969;50.780;7.726;2022-08-03T12:46:11;2.85;;;1.48;;
11823;SDS011;5969;50.780;7.726;2022-08-03T12:48:58;1.90;;;1.42;;
11823;SDS011;5969;50.780;7.726;2022-08-03T12:51:25;1.40;;;1.30;;
11823;SDS011;5969;50.780;7.726;2022-08-03T12:53:53;3.75;;;1.60;;
11823;SDS011;5969;50.780;7.726;2022-08-03T12:56:22;2.30;;;1.30;;
11823;SDS011;5969;50.780;7.726;2022-08-03T12:58:49;2.95;;;1.33;;
11823;SDS011;5969;50.780;7.726;2022-08-03T13:01:17;1.40;;;1.30;;
11823;SDS011;5969;50.780;7.726;2022-08-03T13:03:46;1.40;;;1.30;;
11823;SDS011;5969;50.780;7.726;2022-08-03T13:06:15;2.75;;;1.60;;
11823;SDS011;5969;50.780;7.726;2022-08-03T13:08:42;2.25;;;1.42;;
11823;SDS011;5969;50.780;7.726;2022-08-03T13:11:18;2.50;;;1.42;;
11823;SDS011;5969;50.780;7.726;2022-08-03T13:13:50;2.55;;;1.63;;
11823;SDS011;5969;50.780;7.726;2022-08-03T13:16:18;2.20;;;1.55;;
11823;SDS011;5969;50.780;7.726;2022-08-03T13:18:46;3.53;;;1.70;;
11823;SDS011;5969;50.780;7.726;2022-08-03T13:21:13;3.60;;;1.38;;
11823;SDS011;5969;50.780;7.726;2022-08-03T13:23:40;3.03;;;1.50;;
11823;SDS011;5969;50.780;7.726;2022-08-03T13:26:07;2.28;;;1.50;;
11823;SDS011;5969;50.780;7.726;2022-08-03T13:28:35;2.28;;;1.73;;
11823;SDS011;5969;50.780;7.726;2022-08-03T13:31:02;2.53;;;1.70;;
11823;SDS011;5969;50.780;7.726;2022-08-03T13:33:29;4.13;;;1.60;;
11823;SDS011;5969;50.780;7.726;2022-08-03T13:35:56;3.00;;;1.48;;
11823;SDS011;5969;50.780;7.726;2022-08-03T13:38:23;4.78;;;1.70;;
11823;SDS011;5969;50.780;7.726;2022-08-03T13:40:50;2.95;;;1.60;;
11823;SDS011;5969;50.780;7.726;2022-08-03T13:43:18;1.77;;;1.60;;
11823;SDS011;5969;50.780;7.726;2022-08-03T13:45:46;1.30;;;1.20;;
11823;SDS011;5969;50.780;7.726;2022-08-03T13:48:13;3.28;;;1.58;;
11823;SDS011;5969;50.780;7.726;2022-08-03T13:50:40;2.38;;;1.23;;
11823;SDS011;5969;50.780;7.726;2022-08-03T13:53:06;3.95;;;1.40;;
11823;SDS011;5969;50.780;7.726;2022-08-03T13:55:33;2.30;;;1.63;;
11823;SDS011;5969;50.780;7.726;2022-08-03T13:58:00;2.95;;;1.48;;
11823;SDS011;5969;50.780;7.726;2022-08-03T14:00:27;1.63;;;1.30;;
11823;SDS011;5969;50.780;7.726;2022-08-03T14:02:55;1.63;;;1.48;;
11823;SDS011;5969;50.780;7.726;2022-08-03T14:05:22;1.92;;;1.48;;
11823;SDS011;5969;50.780;7.726;2022-08-03T14:07:49;2.03;;;1.50;;
11823;SDS011;5969;50.780;7.726;2022-08-03T14:10:16;2.92;;;1.45;;
11823;SDS011;5969;50.780;7.726;2022-08-03T14:12:43;2.58;;;1.25;;
11823;SDS011;5969;50.780;7.726;2022-08-03T14:15:10;1.67;;;1.33;;
11823;SDS011;5969;50.780;7.726;2022-08-03T14:17:37;3.72;;;1.65;;
11823;SDS011;5969;50.780;7.726;2022-08-03T14:20:06;2.13;;;1.50;;
11823;SDS011;5969;50.780;7.726;2022-08-03T14:22:34;1.70;;;1.60;;
11823;SDS011;5969;50.780;7.726;2022-08-03T14:25:00;3.22;;;1.80;;
11823;SDS011;5969;50.780;7.726;2022-08-03T14:27:27;1.50;;;1.35;;
11823;SDS011;5969;50.780;7.726;2022-08-03T14:29:54;2.05;;;1.50;;
11823;SDS011;5969;50.780;7.726;2022-08-03T14:32:23;1.67;;;1.33;;
11823;SDS011;5969;50.780;7.726;2022-08-03T14:34:51;1.63;;;1.50;;
11823;SDS011;5969;50.780;7.726;2022-08-03T14:37:19;1.75;;;1.42;;
11823;SDS011;5969;50.780;7.726;2022-08-03T14:39:45;3.88;;;1.60;;
11823;SDS011;5969;50.780;7.726;2022-08-03T14:42:13;3.13;;;1.50;;
11823;SDS011;5969;50.780;7.726;2022-08-03T14:44:40;3.20;;;1.40;;
11823;SDS011;5969;50.780;7.726;2022-08-03T14:47:07;1.50;;;1.40;;
11823;SDS011;5969;50.780;7.726;2022-08-03T14:49:34;3.42;;;1.50;;
11823;SDS011;5969;50.780;7.726;2022-08-03T14:52:00;2.75;;;1.55;;
11823;SDS011;5969;50.780;7.726;2022-08-03T14:54:29;2.03;;;1.50;;
11823;SDS011;5969;50.780;7.726;2022-08-03T14:56:55;2.78;;;1.20;;
11823;SDS011;5969;50.780;7.726;2022-08-03T14:59:22;2.85;;;1.60;;
11823;SDS011;5969;50.780;7.726;2022-08-03T15:01:49;2.08;;;1.30;;
11823;SDS011;5969;50.780;7.726;2022-08-03T15:04:16;2.83;;;1.65;;
11823;SDS011;5969;50.780;7.726;2022-08-03T15:06:43;3.60;;;1.77;;
11823;SDS011;5969;50.780;7.726;2022-08-03T15:09:09;3.35;;;1.55;;
11823;SDS011;5969;50.780;7.726;2022-08-03T15:11:37;1.75;;;1.50;;
11823;SDS011;5969;50.780;7.726;2022-08-03T15:14:05;3.13;;;1.50;;
11823;SDS011;5969;50.780;7.726;2022-08-03T15:16:31;2.40;;;1.45;;
11823;SDS011;5969;50.780;7.726;2022-08-03T15:18:58;1.52;;;1.30;;
11823;SDS011;5969;50.780;7.726;2022-08-03T15:21:25;5.57;;;1.63;;
11823;SDS011;5969;50.780;7.726;2022-08-03T15:23:52;1.70;;;1.60;;
11823;SDS011;5969;50.780;7.726;2022-08-03T15:26:18;1.40;;;1.30;;
11823;SDS011;5969;50.780;7.726;2022-08-03T15:28:46;2.85;;;1.38;;